sensor_id;sensor_type;location;lat;lon;timestamp;pressure;altitude;pressure_sealevel;temperature;humidity
72892;BME280;61032;50.782;6.818;2023-04-24T00:00:28;99158.00;;;12.15;69.86
72892;BME280;61032;50.782;6.818;2023-04-24T00:01:29;99155.28;;;12.18;69.99
72892;BME280;61032;50.782;6.818;2023-04-24T00:02:29;99154.91;;;12.20;69.93
72892;BME280;61032;50.782;6.818;2023-04-24T00:03:30;99149.09;;;12.25;70.02
72892;BME280;61032;50.782;6.818;2023-04-24T00:04:30;99143.41;;;12.14;69.34
72892;BME280;61032;50.782;6.818;2023-04-24T00:05:31;99147.28;;;12.10;69.33
72892;BME280;61032;50.782;6.818;2023-04-24T00:06:33;99141.41;;;12.11;69.80
72892;BME280;61032;50.782;6.818;2023-04-24T00:07:34;99142.25;;;12.15;69.53
72892;BME280;61032;50.782;6.818;2023-04-24T00:08:35;99141.09;;;12.16;70.04
72892;BME280;61032;50.782;6.818;2023-04-24T00:09:36;99137.59;;;12.19;69.82
72892;BME280;61032;50.782;6.818;2023-04-24T00:10:36;99143.09;;;12.19;69.83
72892;BME280;61032;50.782;6.818;2023-04-24T00:11:36;99139.53;;;12.19;69.70
72892;BME280;61032;50.782;6.818;2023-04-24T00:12:37;99143.53;;;12.21;70.02
72892;BME280;61032;50.782;6.818;2023-04-24T00:13:38;99143.03;;;12.16;70.05
72892;BME280;61032;50.782;6.818;2023-04-24T00:14:38;99146.50;;;12.09;70.00
72892;BME280;61032;50.782;6.818;2023-04-24T00:15:39;99146.06;;;12.07;70.04
72892;BME280;61032;50.782;6.818;2023-04-24T00:16:39;99153.53;;;12.07;70.33
72892;BME280;61032;50.782;6.818;2023-04-24T00:17:39;99149.19;;;12.05;70.52
72892;BME280;61032;50.782;6.818;2023-04-24T00:18:40;99140.97;;;12.09;70.65
72892;BME280;61032;50.782;6.818;2023-04-24T00:19:41;99144.97;;;12.12;70.36
72892;BME280;61032;50.782;6.818;2023-04-24T00:20:41;99143.84;;;12.16;70.26
72892;BME280;61032;50.782;6.818;2023-04-24T00:21:43;99142.72;;;12.21;70.19
72892;BME280;61032;50.782;6.818;2023-04-24T00:22:43;99137.97;;;12.18;69.77
72892;BME280;61032;50.782;6.818;2023-04-24T00:23:44;99136.75;;;12.15;69.92
72892;BME280;61032;50.782;6.818;2023-04-24T00:24:44;99135.19;;;12.18;70.10
72892;BME280;61032;50.782;6.818;2023-04-24T00:25:45;99139.13;;;12.17;70.18
72892;BME280;61032;50.782;6.818;2023-04-24T00:26:45;99128.47;;;12.15;69.83
72892;BME280;61032;50.782;6.818;2023-04-24T00:27:45;99127.63;;;12.11;70.20
72892;BME280;61032;50.782;6.818;2023-04-24T00:28:45;99135.94;;;12.15;70.21
72892;BME280;61032;50.782;6.818;2023-04-24T00:29:46;99134.41;;;12.17;70.06
72892;BME280;61032;50.782;6.818;2023-04-24T00:30:46;99134.03;;;12.19;70.42
72892;BME280;61032;50.782;6.818;2023-04-24T00:31:47;99129.66;;;12.14;69.97
72892;BME280;61032;50.782;6.818;2023-04-24T00:32:47;99136.75;;;12.15;69.83
72892;BME280;61032;50.782;6.818;2023-04-24T00:33:47;99130.13;;;12.20;70.02
72892;BME280;61032;50.782;6.818;2023-04-24T00:34:48;99136.41;;;12.20;70.12
72892;BME280;61032;50.782;6.818;2023-04-24T00:35:48;99141.56;;;12.22;70.15
72892;BME280;61032;50.782;6.818;2023-04-24T00:36:48;99133.34;;;12.25;69.94
72892;BME280;61032;50.782;6.818;2023-04-24T00:37:52;99136.09;;;12.25;69.75
72892;BME280;61032;50.782;6.818;2023-04-24T00:38:53;99133.81;;;12.34;69.49
72892;BME280;61032;50.782;6.818;2023-04-24T00:39:53;99136.22;;;12.36;69.58
72892;BME280;61032;50.782;6.818;2023-04-24T00:40:54;99134.88;;;12.23;69.04
72892;BME280;61032;50.782;6.818;2023-04-24T00:41:54;99137.81;;;12.07;69.58
72892;BME280;61032;50.782;6.818;2023-04-24T00:42:56;99144.09;;;12.04;70.13
72892;BME280;61032;50.782;6.818;2023-04-24T00:43:57;99142.56;;;12.10;69.80
72892;BME280;61032;50.782;6.818;2023-04-24T00:44:57;99152.09;;;12.16;69.67
72892;BME280;61032;50.782;6.818;2023-04-24T00:45:58;99145.09;;;12.22;69.79
72892;BME280;61032;50.782;6.818;2023-04-24T00:46:59;99148.25;;;12.21;69.94
72892;BME280;61032;50.782;6.818;2023-04-24T00:48:01;99145.06;;;12.19;69.82
72892;BME280;61032;50.782;6.818;2023-04-24T00:49:02;99138.75;;;12.18;70.29
72892;BME280;61032;50.782;6.818;2023-04-24T00:50:03;99141.50;;;12.18;70.30
72892;BME280;61032;50.782;6.818;2023-04-24T00:51:06;99149.25;;;12.09;70.74
72892;BME280;61032;50.782;6.818;2023-04-24T00:52:06;99147.63;;;12.04;70.94
72892;BME280;61032;50.782;6.818;2023-04-24T00:53:08;99157.94;;;12.11;71.11
72892;BME280;61032;50.782;6.818;2023-04-24T00:54:09;99147.16;;;11.99;71.11
72892;BME280;61032;50.782;6.818;2023-04-24T00:55:09;99148.22;;;11.91;71.33
72892;BME280;61032;50.782;6.818;2023-04-24T00:56:10;99148.16;;;11.87;71.93
72892;BME280;61032;50.782;6.818;2023-04-24T00:57:12;99148.28;;;11.94;71.37
72892;BME280;61032;50.782;6.818;2023-04-24T00:58:14;99157.94;;;11.81;71.90
72892;BME280;61032;50.782;6.818;2023-04-24T00:59:16;99161.91;;;11.84;72.19
72892;BME280;61032;50.782;6.818;2023-04-24T01:00:18;99152.50;;;11.88;72.13
72892;BME280;61032;50.782;6.818;2023-04-24T01:01:20;99157.50;;;11.79;71.72
72892;BME280;61032;50.782;6.818;2023-04-24T01:02:22;99157.66;;;11.63;72.75
72892;BME280;61032;50.782;6.818;2023-04-24T01:03:26;99149.38;;;11.63;72.41
72892;BME280;61032;50.782;6.818;2023-04-24T01:04:28;99159.91;;;11.58;72.52
72892;BME280;61032;50.782;6.818;2023-04-24T01:05:29;99151.81;;;11.42;72.72
72892;BME280;61032;50.782;6.818;2023-04-24T01:06:29;99153.28;;;11.36;71.12
72892;BME280;61032;50.782;6.818;2023-04-24T01:07:34;99144.53;;;11.30;69.86
72892;BME280;61032;50.782;6.818;2023-04-24T01:08:35;99155.16;;;11.32;69.34
72892;BME280;61032;50.782;6.818;2023-04-24T01:09:40;99155.47;;;11.27;68.99
72892;BME280;61032;50.782;6.818;2023-04-24T01:10:44;99158.94;;;11.24;68.12
72892;BME280;61032;50.782;6.818;2023-04-24T01:11:46;99157.94;;;11.09;66.74
72892;BME280;61032;50.782;6.818;2023-04-24T01:12:46;99153.66;;;11.12;67.36
72892;BME280;61032;50.782;6.818;2023-04-24T01:13:48;99151.34;;;11.14;66.90
72892;BME280;61032;50.782;6.818;2023-04-24T01:14:49;99155.47;;;11.27;66.00
72892;BME280;61032;50.782;6.818;2023-04-24T01:15:49;99157.38;;;11.23;65.72
72892;BME280;61032;50.782;6.818;2023-04-24T01:16:49;99154.09;;;11.14;65.80
72892;BME280;61032;50.782;6.818;2023-04-24T01:17:50;99158.84;;;11.17;65.77
72892;BME280;61032;50.782;6.818;2023-04-24T01:18:51;99157.75;;;11.21;66.39
72892;BME280;61032;50.782;6.818;2023-04-24T01:19:51;99165.09;;;11.14;65.87
72892;BME280;61032;50.782;6.818;2023-04-24T01:20:58;99162.34;;;11.14;66.10
72892;BME280;61032;50.782;6.818;2023-04-24T01:22:02;99168.84;;;11.06;65.97
72892;BME280;61032;50.782;6.818;2023-04-24T01:23:02;99169.22;;;11.04;65.95
72892;BME280;61032;50.782;6.818;2023-04-24T01:24:06;99169.72;;;11.10;66.09
72892;BME280;61032;50.782;6.818;2023-04-24T01:25:07;99168.34;;;11.19;66.42
72892;BME280;61032;50.782;6.818;2023-04-24T01:26:07;99169.56;;;11.22;65.76
72892;BME280;61032;50.782;6.818;2023-04-24T01:27:08;99162.56;;;11.28;66.17
72892;BME280;61032;50.782;6.818;2023-04-24T01:28:10;99172.78;;;11.27;65.56
72892;BME280;61032;50.782;6.818;2023-04-24T01:29:10;99168.75;;;11.21;66.34
72892;BME280;61032;50.782;6.818;2023-04-24T01:30:12;99160.44;;;11.18;66.08
72892;BME280;61032;50.782;6.818;2023-04-24T01:31:12;99166.25;;;11.13;66.28
72892;BME280;61032;50.782;6.818;2023-04-24T01:32:13;99172.78;;;11.05;67.14
72892;BME280;61032;50.782;6.818;2023-04-24T01:33:13;99173.19;;;11.07;66.45
72892;BME280;61032;50.782;6.818;2023-04-24T01:34:14;99174.72;;;11.04;66.37
72892;BME280;61032;50.782;6.818;2023-04-24T01:35:14;99175.09;;;11.02;66.60
72892;BME280;61032;50.782;6.818;2023-04-24T01:36:16;99178.28;;;11.05;65.52
72892;BME280;61032;50.782;6.818;2023-04-24T01:37:16;99172.97;;;10.92;66.29
72892;BME280;61032;50.782;6.818;2023-04-24T01:38:17;99183.81;;;10.85;66.19
72892;BME280;61032;50.782;6.818;2023-04-24T01:39:17;99174.66;;;10.78;66.39
72892;BME280;61032;50.782;6.818;2023-04-24T01:40:17;99183.63;;;10.75;67.08
72892;BME280;61032;50.782;6.818;2023-04-24T01:41:18;99172.28;;;10.76;66.45
72892;BME280;61032;50.782;6.818;2023-04-24T01:42:18;99182.59;;;10.83;65.74
72892;BME280;61032;50.782;6.818;2023-04-24T01:43:19;99170.38;;;10.80;64.89
72892;BME280;61032;50.782;6.818;2023-04-24T01:44:20;99178.47;;;10.92;64.94
72892;BME280;61032;50.782;6.818;2023-04-24T01:45:21;99171.06;;;10.96;64.16
72892;BME280;61032;50.782;6.818;2023-04-24T01:46:21;99183.59;;;10.94;64.57
72892;BME280;61032;50.782;6.818;2023-04-24T01:47:23;99174.63;;;10.97;64.15
72892;BME280;61032;50.782;6.818;2023-04-24T01:48:24;99178.53;;;10.96;63.37
72892;BME280;61032;50.782;6.818;2023-04-24T01:49:24;99175.50;;;10.82;63.52
72892;BME280;61032;50.782;6.818;2023-04-24T01:50:24;99174.22;;;10.76;64.41
72892;BME280;61032;50.782;6.818;2023-04-24T01:51:25;99176.91;;;10.72;63.92
72892;BME280;61032;50.782;6.818;2023-04-24T01:52:25;99173.13;;;10.61;64.71
72892;BME280;61032;50.782;6.818;2023-04-24T01:53:25;99172.00;;;10.43;65.44
72892;BME280;61032;50.782;6.818;2023-04-24T01:54:26;99172.88;;;10.47;65.22
72892;BME280;61032;50.782;6.818;2023-04-24T01:55:27;99171.34;;;10.49;64.52
72892;BME280;61032;50.782;6.818;2023-04-24T01:56:29;99171.44;;;10.53;64.64
72892;BME280;61032;50.782;6.818;2023-04-24T01:57:30;99166.81;;;10.57;65.11
72892;BME280;61032;50.782;6.818;2023-04-24T01:58:31;99164.84;;;10.57;64.97
72892;BME280;61032;50.782;6.818;2023-04-24T01:59:33;99162.22;;;10.64;64.24
72892;BME280;61032;50.782;6.818;2023-04-24T02:00:33;99176.56;;;10.54;64.27
72892;BME280;61032;50.782;6.818;2023-04-24T02:01:34;99163.53;;;10.51;64.64
72892;BME280;61032;50.782;6.818;2023-04-24T02:02:36;99163.53;;;10.51;64.86
72892;BME280;61032;50.782;6.818;2023-04-24T02:03:36;99163.47;;;10.48;64.98
72892;BME280;61032;50.782;6.818;2023-04-24T02:04:37;99174.91;;;10.30;65.41
72892;BME280;61032;50.782;6.818;2023-04-24T02:05:37;99173.06;;;10.19;65.67
72892;BME280;61032;50.782;6.818;2023-04-24T02:06:37;99169.31;;;10.27;66.01
72892;BME280;61032;50.782;6.818;2023-04-24T02:07:38;99170.50;;;10.10;66.21
72892;BME280;61032;50.782;6.818;2023-04-24T02:08:38;99172.97;;;9.96;66.31
72892;BME280;61032;50.782;6.818;2023-04-24T02:09:38;99170.75;;;9.86;66.68
72892;BME280;61032;50.782;6.818;2023-04-24T02:10:38;99176.81;;;9.76;67.53
72892;BME280;61032;50.782;6.818;2023-04-24T02:11:39;99170.31;;;9.84;67.57
72892;BME280;61032;50.782;6.818;2023-04-24T02:12:39;99169.97;;;9.85;67.03
72892;BME280;61032;50.782;6.818;2023-04-24T02:13:39;99178.28;;;9.89;66.82
72892;BME280;61032;50.782;6.818;2023-04-24T02:14:40;99178.72;;;9.91;66.33
72892;BME280;61032;50.782;6.818;2023-04-24T02:15:40;99178.41;;;9.77;66.74
72892;BME280;61032;50.782;6.818;2023-04-24T02:16:40;99177.75;;;9.83;66.81
72892;BME280;61032;50.782;6.818;2023-04-24T02:17:40;99182.38;;;9.79;66.86
72892;BME280;61032;50.782;6.818;2023-04-24T02:18:41;99172.19;;;9.80;66.41
72892;BME280;61032;50.782;6.818;2023-04-24T02:19:41;99190.63;;;9.63;66.77
72892;BME280;61032;50.782;6.818;2023-04-24T02:20:41;99188.69;;;9.64;67.28
72892;BME280;61032;50.782;6.818;2023-04-24T02:21:42;99190.75;;;9.51;67.17
72892;BME280;61032;50.782;6.818;2023-04-24T02:22:42;99190.56;;;9.44;67.29
72892;BME280;61032;50.782;6.818;2023-04-24T02:23:42;99198.09;;;9.47;67.45
72892;BME280;61032;50.782;6.818;2023-04-24T02:24:42;99198.88;;;9.48;67.61
72892;BME280;61032;50.782;6.818;2023-04-24T02:25:43;99196.03;;;9.60;67.66
72892;BME280;61032;50.782;6.818;2023-04-24T02:26:43;99194.78;;;9.57;67.31
72892;BME280;61032;50.782;6.818;2023-04-24T02:27:43;99199.41;;;9.53;68.04
72892;BME280;61032;50.782;6.818;2023-04-24T02:28:44;99197.13;;;9.55;67.68
72892;BME280;61032;50.782;6.818;2023-04-24T02:29:44;99203.22;;;9.49;68.27
72892;BME280;61032;50.782;6.818;2023-04-24T02:30:44;99201.38;;;9.53;68.14
72892;BME280;61032;50.782;6.818;2023-04-24T02:31:45;99210.41;;;9.53;67.80
72892;BME280;61032;50.782;6.818;2023-04-24T02:32:45;99204.25;;;9.60;67.51
72892;BME280;61032;50.782;6.818;2023-04-24T02:33:45;99205.34;;;9.55;68.10
72892;BME280;61032;50.782;6.818;2023-04-24T02:34:46;99200.13;;;9.50;68.22
72892;BME280;61032;50.782;6.818;2023-04-24T02:35:46;99220.75;;;9.44;68.50
72892;BME280;61032;50.782;6.818;2023-04-24T02:36:46;99209.16;;;9.51;68.56
72892;BME280;61032;50.782;6.818;2023-04-24T02:37:47;99209.25;;;9.54;67.97
72892;BME280;61032;50.782;6.818;2023-04-24T02:38:47;99218.06;;;9.63;68.24
72892;BME280;61032;50.782;6.818;2023-04-24T02:39:47;99220.28;;;9.74;67.83
72892;BME280;61032;50.782;6.818;2023-04-24T02:40:48;99216.44;;;9.78;67.96
72892;BME280;61032;50.782;6.818;2023-04-24T02:41:48;99216.03;;;9.76;67.50
72892;BME280;61032;50.782;6.818;2023-04-24T02:42:48;99216.63;;;9.85;67.73
72892;BME280;61032;50.782;6.818;2023-04-24T02:43:48;99221.22;;;9.97;66.99
72892;BME280;61032;50.782;6.818;2023-04-24T02:44:49;99219.63;;;9.96;66.85
72892;BME280;61032;50.782;6.818;2023-04-24T02:45:51;99204.91;;;10.04;67.11
72892;BME280;61032;50.782;6.818;2023-04-24T02:46:51;99224.56;;;10.06;66.89
72892;BME280;61032;50.782;6.818;2023-04-24T02:47:51;99216.69;;;10.05;66.37
72892;BME280;61032;50.782;6.818;2023-04-24T02:48:52;99218.25;;;10.06;66.25
72892;BME280;61032;50.782;6.818;2023-04-24T02:49:52;99230.75;;;10.03;66.06
72892;BME280;61032;50.782;6.818;2023-04-24T02:50:52;99235.81;;;10.01;66.30
72892;BME280;61032;50.782;6.818;2023-04-24T02:51:53;99229.88;;;9.99;65.50
72892;BME280;61032;50.782;6.818;2023-04-24T02:52:53;99228.72;;;10.00;65.99
72892;BME280;61032;50.782;6.818;2023-04-24T02:53:53;99229.72;;;9.92;66.21
72892;BME280;61032;50.782;6.818;2023-04-24T02:54:54;99237.78;;;9.85;66.45
72892;BME280;61032;50.782;6.818;2023-04-24T02:55:54;99231.59;;;9.88;66.64
72892;BME280;61032;50.782;6.818;2023-04-24T02:56:54;99234.50;;;9.95;66.60
72892;BME280;61032;50.782;6.818;2023-04-24T02:57:55;99235.44;;;10.03;65.74
72892;BME280;61032;50.782;6.818;2023-04-24T02:58:55;99235.44;;;10.03;65.75
72892;BME280;61032;50.782;6.818;2023-04-24T02:59:55;99227.75;;;10.08;65.98
72892;BME280;61032;50.782;6.818;2023-04-24T03:00:55;99221.38;;;10.04;66.16
72892;BME280;61032;50.782;6.818;2023-04-24T03:01:56;99220.56;;;10.04;65.94
72892;BME280;61032;50.782;6.818;2023-04-24T03:02:56;99216.75;;;10.08;65.60
72892;BME280;61032;50.782;6.818;2023-04-24T03:03:57;99221.81;;;10.06;65.63
72892;BME280;61032;50.782;6.818;2023-04-24T03:04:58;99220.03;;;9.98;65.63
72892;BME280;61032;50.782;6.818;2023-04-24T03:05:58;99225.53;;;9.98;65.85
72892;BME280;61032;50.782;6.818;2023-04-24T03:06:59;99218.75;;;9.92;65.64
72892;BME280;61032;50.782;6.818;2023-04-24T03:07:59;99226.63;;;9.93;65.52
72892;BME280;61032;50.782;6.818;2023-04-24T03:09:00;99218.84;;;9.95;66.21
72892;BME280;61032;50.782;6.818;2023-04-24T03:10:00;99228.66;;;9.96;66.24
72892;BME280;61032;50.782;6.818;2023-04-24T03:11:00;99220.03;;;9.98;65.80
72892;BME280;61032;50.782;6.818;2023-04-24T03:12:01;99222.78;;;9.98;65.53
72892;BME280;61032;50.782;6.818;2023-04-24T03:13:01;99229.03;;;9.95;65.77
72892;BME280;61032;50.782;6.818;2023-04-24T03:14:01;99220.78;;;9.95;66.02
72892;BME280;61032;50.782;6.818;2023-04-24T03:15:02;99233.63;;;9.91;65.90
72892;BME280;61032;50.782;6.818;2023-04-24T03:16:03;99235.38;;;9.99;66.10
72892;BME280;61032;50.782;6.818;2023-04-24T03:17:04;99240.84;;;9.99;65.84
72892;BME280;61032;50.782;6.818;2023-04-24T03:18:04;99240.06;;;9.98;65.98
72892;BME280;61032;50.782;6.818;2023-04-24T03:19:04;99240.06;;;9.98;65.73
72892;BME280;61032;50.782;6.818;2023-04-24T03:20:05;99240.84;;;9.99;65.92
72892;BME280;61032;50.782;6.818;2023-04-24T03:21:06;99241.03;;;10.06;65.99
72892;BME280;61032;50.782;6.818;2023-04-24T03:22:06;99249.63;;;10.05;65.91
72892;BME280;61032;50.782;6.818;2023-04-24T03:23:09;99237.94;;;10.08;65.69
72892;BME280;61032;50.782;6.818;2023-04-24T03:24:09;99246.16;;;10.08;65.61
72892;BME280;61032;50.782;6.818;2023-04-24T03:25:09;99239.53;;;10.09;65.60
72892;BME280;61032;50.782;6.818;2023-04-24T03:26:09;99244.22;;;10.08;65.92
72892;BME280;61032;50.782;6.818;2023-04-24T03:27:10;99240.41;;;10.13;66.07
72892;BME280;61032;50.782;6.818;2023-04-24T03:28:10;99248.63;;;10.13;65.64
72892;BME280;61032;50.782;6.818;2023-04-24T03:29:11;99241.19;;;10.13;65.33
72892;BME280;61032;50.782;6.818;2023-04-24T03:30:11;99230.56;;;10.12;65.58
72892;BME280;61032;50.782;6.818;2023-04-24T03:31:11;99237.13;;;10.07;65.31
72892;BME280;61032;50.782;6.818;2023-04-24T03:32:12;99237.84;;;10.04;66.15
72892;BME280;61032;50.782;6.818;2023-04-24T03:33:12;99233.72;;;9.94;65.91
72892;BME280;61032;50.782;6.818;2023-04-24T03:34:12;99231.25;;;9.89;66.05
72892;BME280;61032;50.782;6.818;2023-04-24T03:35:13;99235.22;;;9.92;66.08
72892;BME280;61032;50.782;6.818;2023-04-24T03:36:13;99223.72;;;9.86;65.51
72892;BME280;61032;50.782;6.818;2023-04-24T03:37:13;99218.31;;;9.90;66.01
72892;BME280;61032;50.782;6.818;2023-04-24T03:38:14;99227.16;;;9.83;66.38
72892;BME280;61032;50.782;6.818;2023-04-24T03:39:14;99234.16;;;9.81;66.51
72892;BME280;61032;50.782;6.818;2023-04-24T03:40:14;99232.56;;;9.80;66.31
72892;BME280;61032;50.782;6.818;2023-04-24T03:41:15;99239.22;;;9.79;66.25
72892;BME280;61032;50.782;6.818;2023-04-24T03:42:15;99234.34;;;9.56;66.89
72892;BME280;61032;50.782;6.818;2023-04-24T03:43:15;99230.09;;;9.59;67.26
72892;BME280;61032;50.782;6.818;2023-04-24T03:44:16;99236.13;;;9.64;66.87
72892;BME280;61032;50.782;6.818;2023-04-24T03:45:16;99229.94;;;9.68;67.31
72892;BME280;61032;50.782;6.818;2023-04-24T03:46:16;99229.84;;;9.64;66.85
72892;BME280;61032;50.782;6.818;2023-04-24T03:47:17;99233.03;;;9.66;66.69
72892;BME280;61032;50.782;6.818;2023-04-24T03:48:17;99234.72;;;9.71;66.74
72892;BME280;61032;50.782;6.818;2023-04-24T03:49:17;99240.56;;;9.69;66.76
72892;BME280;61032;50.782;6.818;2023-04-24T03:50:18;99235.50;;;9.71;66.84
72892;BME280;61032;50.782;6.818;2023-04-24T03:51:18;99234.00;;;9.74;66.60
72892;BME280;61032;50.782;6.818;2023-04-24T03:52:18;99233.81;;;9.82;66.47
72892;BME280;61032;50.782;6.818;2023-04-24T03:53:18;99243.19;;;9.81;66.27
72892;BME280;61032;50.782;6.818;2023-04-24T03:54:19;99246.22;;;9.76;67.15
72892;BME280;61032;50.782;6.818;2023-04-24T03:55:20;99242.84;;;9.83;66.92
72892;BME280;61032;50.782;6.818;2023-04-24T03:56:20;99242.13;;;9.86;66.37
72892;BME280;61032;50.782;6.818;2023-04-24T03:57:21;99241.69;;;9.84;66.23
72892;BME280;61032;50.782;6.818;2023-04-24T03:58:21;99246.13;;;9.88;66.32
72892;BME280;61032;50.782;6.818;2023-04-24T03:59:21;99247.63;;;9.86;66.70
72892;BME280;61032;50.782;6.818;2023-04-24T04:00:22;99243.00;;;9.90;66.48
72892;BME280;61032;50.782;6.818;2023-04-24T04:01:22;99235.56;;;9.90;66.12
72892;BME280;61032;50.782;6.818;2023-04-24T04:02:23;99245.31;;;9.88;66.38
72892;BME280;61032;50.782;6.818;2023-04-24T04:03:23;99245.22;;;9.84;66.62
72892;BME280;61032;50.782;6.818;2023-04-24T04:04:24;99240.09;;;9.83;66.69
72892;BME280;61032;50.782;6.818;2023-04-24T04:05:24;99240.53;;;9.85;66.62
72892;BME280;61032;50.782;6.818;2023-04-24T04:06:24;99240.09;;;9.83;66.81
72892;BME280;61032;50.782;6.818;2023-04-24T04:07:24;99238.06;;;9.80;66.99
72892;BME280;61032;50.782;6.818;2023-04-24T04:08:25;99244.97;;;9.89;67.40
72892;BME280;61032;50.782;6.818;2023-04-24T04:09:25;99238.91;;;9.99;66.83
72892;BME280;61032;50.782;6.818;2023-04-24T04:10:26;99238.91;;;9.99;66.09
72892;BME280;61032;50.782;6.818;2023-04-24T04:11:26;99237.41;;;10.02;66.32
72892;BME280;61032;50.782;6.818;2023-04-24T04:12:26;99243.25;;;10.00;66.29
72892;BME280;61032;50.782;6.818;2023-04-24T04:13:27;99244.47;;;10.03;66.78
72892;BME280;61032;50.782;6.818;2023-04-24T04:14:27;99233.34;;;9.96;66.81
72892;BME280;61032;50.782;6.818;2023-04-24T04:15:28;99235.81;;;10.01;66.65
72892;BME280;61032;50.782;6.818;2023-04-24T04:16:28;99236.25;;;10.03;65.96
72892;BME280;61032;50.782;6.818;2023-04-24T04:17:29;99236.59;;;10.02;66.27
72892;BME280;61032;50.782;6.818;2023-04-24T04:18:29;99233.06;;;10.01;66.85
72892;BME280;61032;50.782;6.818;2023-04-24T04:19:29;99236.16;;;9.99;66.65
72892;BME280;61032;50.782;6.818;2023-04-24T04:20:29;99237.94;;;10.08;66.62
72892;BME280;61032;50.782;6.818;2023-04-24T04:21:30;99237.94;;;10.08;66.47
72892;BME280;61032;50.782;6.818;2023-04-24T04:22:31;99242.88;;;10.02;66.44
72892;BME280;61032;50.782;6.818;2023-04-24T04:23:31;99238.56;;;10.01;66.83
72892;BME280;61032;50.782;6.818;2023-04-24T04:24:32;99238.84;;;9.96;67.01
72892;BME280;61032;50.782;6.818;2023-04-24T04:25:32;99237.88;;;9.88;67.39
72892;BME280;61032;50.782;6.818;2023-04-24T04:26:32;99238.22;;;9.87;67.58
72892;BME280;61032;50.782;6.818;2023-04-24T04:27:33;99244.59;;;9.91;67.64
72892;BME280;61032;50.782;6.818;2023-04-24T04:28:33;99237.53;;;9.90;67.35
72892;BME280;61032;50.782;6.818;2023-04-24T04:29:34;99243.91;;;9.94;67.88
72892;BME280;61032;50.782;6.818;2023-04-24T04:30:35;99243.59;;;9.99;67.74
72892;BME280;61032;50.782;6.818;2023-04-24T04:31:38;99244.03;;;10.01;67.76
72892;BME280;61032;50.782;6.818;2023-04-24T04:32:38;99247.31;;;10.07;67.34
72892;BME280;61032;50.782;6.818;2023-04-24T04:33:38;99236.16;;;9.99;67.12
72892;BME280;61032;50.782;6.818;2023-04-24T04:34:39;99246.09;;;10.04;67.47
72892;BME280;61032;50.782;6.818;2023-04-24T04:35:40;99247.31;;;10.07;67.10
72892;BME280;61032;50.782;6.818;2023-04-24T04:36:41;99250.34;;;10.02;67.32
72892;BME280;61032;50.782;6.818;2023-04-24T04:37:41;99248.13;;;10.07;67.39
72892;BME280;61032;50.782;6.818;2023-04-24T04:38:42;99238.09;;;9.99;67.43
72892;BME280;61032;50.782;6.818;2023-04-24T04:39:42;99248.38;;;10.02;67.47
72892;BME280;61032;50.782;6.818;2023-04-24T04:40:43;99243.19;;;9.97;67.52
72892;BME280;61032;50.782;6.818;2023-04-24T04:41:44;99248.28;;;9.98;67.41
72892;BME280;61032;50.782;6.818;2023-04-24T04:42:46;99246.78;;;10.01;67.50
72892;BME280;61032;50.782;6.818;2023-04-24T04:43:47;99241.59;;;9.96;67.41
72892;BME280;61032;50.782;6.818;2023-04-24T04:44:48;99233.50;;;10.03;67.97
72892;BME280;61032;50.782;6.818;2023-04-24T04:45:48;99234.66;;;10.02;67.53
72892;BME280;61032;50.782;6.818;2023-04-24T04:46:49;99238.84;;;9.96;67.26
72892;BME280;61032;50.782;6.818;2023-04-24T04:47:50;99239.25;;;9.98;67.86
72892;BME280;61032;50.782;6.818;2023-04-24T04:48:50;99239.69;;;10.00;67.86
72892;BME280;61032;50.782;6.818;2023-04-24T04:49:51;99240.16;;;10.02;67.06
72892;BME280;61032;50.782;6.818;2023-04-24T04:50:51;99237.69;;;9.97;67.27
72892;BME280;61032;50.782;6.818;2023-04-24T04:51:52;99235.31;;;9.95;67.97
72892;BME280;61032;50.782;6.818;2023-04-24T04:52:53;99246.34;;;9.99;68.14
72892;BME280;61032;50.782;6.818;2023-04-24T04:53:53;99240.16;;;10.02;67.35
72892;BME280;61032;50.782;6.818;2023-04-24T04:54:53;99244.03;;;10.01;67.61
72892;BME280;61032;50.782;6.818;2023-04-24T04:55:53;99246.34;;;9.99;67.99
72892;BME280;61032;50.782;6.818;2023-04-24T04:56:54;99239.25;;;9.98;67.54
72892;BME280;61032;50.782;6.818;2023-04-24T04:57:55;99248.69;;;9.97;68.08
72892;BME280;61032;50.782;6.818;2023-04-24T04:58:56;99243.25;;;10.00;67.78
72892;BME280;61032;50.782;6.818;2023-04-24T04:59:56;99245.28;;;10.04;68.03
72892;BME280;61032;50.782;6.818;2023-04-24T05:00:56;99250.34;;;10.02;67.42
72892;BME280;61032;50.782;6.818;2023-04-24T05:01:57;99251.13;;;10.02;67.95
72892;BME280;61032;50.782;6.818;2023-04-24T05:02:57;99248.81;;;10.04;67.96
72892;BME280;61032;50.782;6.818;2023-04-24T05:03:57;99248.13;;;10.07;67.94
72892;BME280;61032;50.782;6.818;2023-04-24T05:04:58;99257.50;;;10.06;67.71
72892;BME280;61032;50.782;6.818;2023-04-24T05:05:58;99247.94;;;10.16;67.60
72892;BME280;61032;50.782;6.818;2023-04-24T05:06:59;99252.28;;;10.17;67.54
72892;BME280;61032;50.782;6.818;2023-04-24T05:07:59;99249.97;;;10.19;67.81
72892;BME280;61032;50.782;6.818;2023-04-24T05:08:59;99238.00;;;10.27;67.31
72892;BME280;61032;50.782;6.818;2023-04-24T05:10:00;99249.25;;;10.22;67.61
72892;BME280;61032;50.782;6.818;2023-04-24T05:11:00;99241.38;;;10.20;67.45
72892;BME280;61032;50.782;6.818;2023-04-24T05:12:01;99239.16;;;10.26;67.47
72892;BME280;61032;50.782;6.818;2023-04-24T05:13:03;99244.28;;;10.27;66.81
72892;BME280;61032;50.782;6.818;2023-04-24T05:14:04;99247.75;;;10.24;66.70
72892;BME280;61032;50.782;6.818;2023-04-24T05:15:04;99240.31;;;10.25;67.03
72892;BME280;61032;50.782;6.818;2023-04-24T05:16:08;99246.59;;;10.25;67.10
72892;BME280;61032;50.782;6.818;2023-04-24T05:17:09;99262.28;;;10.25;66.84
72892;BME280;61032;50.782;6.818;2023-04-24T05:18:09;99259.09;;;10.23;67.56
72892;BME280;61032;50.782;6.818;2023-04-24T05:19:10;99256.69;;;10.21;67.66
72892;BME280;61032;50.782;6.818;2023-04-24T05:20:11;99264.41;;;10.16;67.75
72892;BME280;61032;50.782;6.818;2023-04-24T05:21:12;99256.53;;;10.14;68.07
72892;BME280;61032;50.782;6.818;2023-04-24T05:22:12;99259.34;;;10.18;68.06
72892;BME280;61032;50.782;6.818;2023-04-24T05:23:13;99258.66;;;10.21;67.89